Time;durP1;ratioP1;P1;durP2;ratioP2;P2;SDS_P1;SDS_P2;PMS_P1;PMS_P2;Temp;Humidity;BMP_temperature;BMP_pressure;BME280_temperature;BME280_humidity;BME280_pressure;Samples;Min_cycle;Max_cycle;Signal;HPM_P1;HPM_P2
2022/07/28 00:01:24;;;;;;;5.80;4.70;;;11.50;99.90;;;;;;4986415;28;20285;-51
2022/07/28 00:03:49;;;;;;;7.32;4.60;;;11.50;99.90;;;;;;4998014;28;20049;-50
2022/07/28 00:06:16;;;;;;;5.82;4.47;;;11.40;99.90;;;;;;4979382;28;20064;-46
2022/07/28 00:08:42;;;;;;;6.88;4.07;;;11.40;99.90;;;;;;4988673;28;20092;-48
2022/07/28 00:11:08;;;;;;;3.97;3.50;;;11.40;99.90;;;;;;5005026;28;20140;-48
2022/07/28 00:13:34;;;;;;;7.18;3.75;;;11.50;99.90;;;;;;5003860;28;20497;-49
2022/07/28 00:16:00;;;;;;;4.75;3.58;;;11.50;99.90;;;;;;4986081;28;20057;-46
2022/07/28 00:18:26;;;;;;;3.72;3.03;;;11.40;99.90;;;;;;5004792;28;20122;-50
2022/07/28 00:20:52;;;;;;;3.30;3.00;;;11.50;99.90;;;;;;5003556;28;20604;-45
2022/07/28 00:23:18;;;;;;;4.50;2.88;;;11.40;99.90;;;;;;4987472;28;20382;-51
2022/07/28 00:25:44;;;;;;;3.30;2.58;;;11.40;99.90;;;;;;5003250;28;20049;-48
2022/07/28 00:28:10;;;;;;;4.07;2.80;;;11.40;99.90;;;;;;4984576;28;20101;-50
2022/07/28 00:30:36;;;;;;;5.65;3.28;;;11.30;99.90;;;;;;5011943;28;20532;-49
2022/07/28 00:33:02;;;;;;;4.50;2.85;;;11.30;99.90;;;;;;5026704;28;20057;-46
2022/07/28 00:35:28;;;;;;;5.32;3.15;;;11.20;99.90;;;;;;5026435;28;20057;-46
2022/07/28 00:37:54;;;;;;;5.55;3.80;;;11.30;99.90;;;;;;5010673;28;20131;-42
2022/07/28 00:40:20;;;;;;;5.53;3.75;;;11.30;99.90;;;;;;5019589;28;20487;-49
2022/07/28 00:42:46;;;;;;;3.53;2.97;;;11.40;99.90;;;;;;5005926;28;20057;-48
2022/07/28 00:45:13;;;;;;;4.10;2.90;;;11.40;99.90;;;;;;5006282;28;20060;-49
2022/07/28 00:47:38;;;;;;;4.60;3.13;;;11.40;99.90;;;;;;5001224;28;20042;-49
2022/07/28 00:50:05;;;;;;;4.28;3.22;;;11.30;99.90;;;;;;5006703;28;20049;-50
2022/07/28 00:52:31;;;;;;;5.68;3.30;;;11.40;99.90;;;;;;5006519;28;20050;-49
2022/07/28 00:54:58;;;;;;;5.22;3.78;;;11.40;99.90;;;;;;5006076;28;20112;-49
2022/07/28 00:57:24;;;;;;;6.45;3.67;;;11.40;99.90;;;;;;5000293;28;20557;-48
2022/07/28 00:59:50;;;;;;;4.53;3.50;;;11.40;99.90;;;;;;4966949;28;20056;-49
2022/07/28 01:02:17;;;;;;;4.13;3.50;;;11.40;99.90;;;;;;4986417;28;20085;-48
2022/07/28 01:04:43;;;;;;;4.30;3.38;;;11.40;99.90;;;;;;4967800;28;20573;-48
2022/07/28 01:07:51;;;;;;;3.50;3.20;;;11.30;99.90;;;;;;4968811;28;20090;-50
2022/07/28 01:10:44;;;;;;;9.13;4.55;;;11.30;99.90;;;;;;4906445;29;20063;-52
2022/07/28 01:13:25;;;;;;;6.75;4.10;;;11.40;99.90;;;;;;4891077;29;20125;-49
2022/07/28 01:16:09;;;;;;;3.83;3.30;;;11.40;99.90;;;;;;4906824;29;20048;-49
2022/07/28 01:19:08;;;;;;;7.20;4.18;;;11.40;99.90;;;;;;4890543;29;20147;-50
2022/07/28 01:21:36;;;;;;;4.72;4.15;;;11.30;99.90;;;;;;4890149;29;20071;-47
2022/07/28 01:24:22;;;;;;;6.72;3.78;;;11.30;99.90;;;;;;4905238;29;20104;-47
2022/07/28 01:27:23;;;;;;;6.28;4.55;;;11.30;99.90;;;;;;4888075;29;20626;-50
2022/07/28 01:30:19;;;;;;;5.13;3.50;;;11.30;99.90;;;;;;4897322;29;20079;-49
2022/07/28 01:32:52;;;;;;;3.63;2.67;;;11.20;99.90;;;;;;4907855;29;20075;-50
2022/07/28 01:35:27;;;;;;;5.30;3.72;;;11.20;99.90;;;;;;4907399;29;20468;-47
2022/07/28 01:37:58;;;;;;;3.83;3.30;;;11.10;99.90;;;;;;4890367;29;20056;-54
2022/07/28 01:40:28;;;;;;;3.33;3.03;;;11.10;99.90;;;;;;4906170;29;20100;-50
2022/07/28 01:42:59;;;;;;;6.80;3.50;;;11.00;99.90;;;;;;4907154;29;20060;-45
2022/07/28 01:45:26;;;;;;;5.20;4.05;;;10.90;99.90;;;;;;4908805;28;20064;-48
2022/07/28 01:47:55;;;;;;;5.72;3.72;;;10.90;99.90;;;;;;4983620;28;20092;-47
2022/07/28 01:50:23;;;;;;;7.25;4.20;;;10.90;99.90;;;;;;4986913;28;20054;-48
2022/07/28 01:52:50;;;;;;;4.20;3.80;;;10.90;99.90;;;;;;4985974;28;20078;-48
2022/07/28 01:55:21;;;;;;;6.07;4.07;;;10.90;99.90;;;;;;4985967;28;20481;-49
2022/07/28 01:57:50;;;;;;;7.07;4.00;;;10.80;99.90;;;;;;4986082;28;20081;-48
2022/07/28 02:00:17;;;;;;;4.80;4.05;;;10.90;99.90;;;;;;4981468;28;20141;-47
2022/07/28 02:02:47;;;;;;;4.82;3.80;;;10.80;99.90;;;;;;4977055;28;20050;-49
2022/07/28 02:05:17;;;;;;;4.10;3.45;;;10.80;99.90;;;;;;4996086;28;20061;-46
2022/07/28 02:07:45;;;;;;;4.97;3.90;;;10.80;99.90;;;;;;4988031;28;20058;-51
2022/07/28 02:10:14;;;;;;;4.70;3.78;;;10.80;99.90;;;;;;4971578;28;20861;-47
2022/07/28 02:12:44;;;;;;;5.00;4.13;;;10.70;99.90;;;;;;4986005;28;20054;-48
2022/07/28 02:15:12;;;;;;;5.45;4.40;;;10.70;99.90;;;;;;4985862;28;20189;-47
2022/07/28 02:17:43;;;;;;;6.18;4.50;;;10.70;99.90;;;;;;4968612;28;20054;-52
2022/07/28 02:20:12;;;;;;;4.70;3.83;;;10.70;99.90;;;;;;5002294;28;20049;-47
2022/07/28 02:22:39;;;;;;;6.65;4.30;;;10.70;99.90;;;;;;5005142;28;20104;-48
2022/07/28 02:25:06;;;;;;;4.47;4.07;;;10.70;99.90;;;;;;4985962;28;20081;-49
2022/07/28 02:28:02;;;;;;;6.30;3.50;;;10.80;99.90;;;;;;4967822;28;20054;-49
2022/07/28 02:30:44;;;;;;;3.60;3.17;;;10.70;99.90;;;;;;4972294;28;20572;-48
2022/07/28 02:33:33;;;;;;;4.63;3.40;;;10.70;99.90;;;;;;5004767;28;20045;-48
2022/07/28 02:36:06;;;;;;;5.25;3.42;;;10.70;99.90;;;;;;4992432;28;20050;-53
2022/07/28 02:38:45;;;;;;;4.90;4.05;;;10.80;99.90;;;;;;5005018;28;20057;-46
2022/07/28 02:41:24;;;;;;;5.65;4.22;;;10.70;99.90;;;;;;5005293;28;20523;-46
2022/07/28 02:43:55;;;;;;;5.70;3.90;;;10.70;99.90;;;;;;4998841;28;20069;-46
2022/07/28 02:46:30;;;;;;;6.18;3.63;;;10.60;99.90;;;;;;5015198;28;20455;-50
2022/07/28 02:49:05;;;;;;;5.72;4.45;;;10.60;99.90;;;;;;5024098;28;20049;-48
2022/07/28 02:51:33;;;;;;;5.00;4.20;;;10.60;99.90;;;;;;5007200;28;20065;-48
2022/07/28 02:54:02;;;;;;;5.70;4.50;;;10.60;99.90;;;;;;4994649;28;20053;-51
2022/07/28 02:56:30;;;;;;;10.30;6.55;;;10.50;99.90;;;;;;4987819;28;20050;-49
2022/07/28 02:58:57;;;;;;;8.07;5.03;;;10.50;99.90;;;;;;4995862;28;20493;-49
2022/07/28 03:01:24;;;;;;;7.32;5.15;;;10.50;99.90;;;;;;5005406;28;20050;-50
2022/07/28 03:03:51;;;;;;;6.82;4.82;;;10.50;99.90;;;;;;4987337;28;20062;-47
2022/07/28 03:06:19;;;;;;;10.38;6.05;;;10.50;99.90;;;;;;5015421;28;20049;-49
2022/07/28 03:08:45;;;;;;;12.95;7.93;;;10.40;99.90;;;;;;5008527;28;20107;-48
2022/07/28 03:11:12;;;;;;;12.10;6.85;;;10.40;99.90;;;;;;5006858;28;20068;-47
2022/07/28 03:13:39;;;;;;;8.82;6.07;;;10.40;99.90;;;;;;4985366;28;20065;-49
2022/07/28 03:16:05;;;;;;;10.38;6.65;;;10.40;99.90;;;;;;5005681;28;20096;-46
2022/07/28 03:18:32;;;;;;;8.10;4.90;;;10.40;99.90;;;;;;5002451;28;20056;-47
2022/07/28 03:20:59;;;;;;;6.25;4.80;;;10.40;99.90;;;;;;4986783;28;20068;-49
2022/07/28 03:23:54;;;;;;;7.85;5.60;;;10.30;99.90;;;;;;5005410;28;20093;-48
2022/07/28 03:26:41;;;;;;;7.15;5.90;;;10.30;99.90;;;;;;4944126;29;20055;-50
2022/07/28 03:29:13;;;;;;;8.65;5.75;;;10.30;99.90;;;;;;4962077;28;20446;-46
2022/07/28 03:31:40;;;;;;;10.90;7.15;;;10.20;99.90;;;;;;4930293;29;20071;-47
2022/07/28 03:34:09;;;;;;;7.57;5.55;;;10.30;99.90;;;;;;4927592;29;20050;-48
2022/07/28 03:36:39;;;;;;;4.60;4.13;;;10.30;99.90;;;;;;4924015;28;20665;-48
2022/07/28 03:39:10;;;;;;;5.80;4.30;;;10.20;99.90;;;;;;4960192;28;20062;-49
2022/07/28 03:41:37;;;;;;;5.00;4.18;;;10.30;99.90;;;;;;4962688;28;20055;-48
2022/07/28 03:44:04;;;;;;;5.85;4.85;;;10.30;99.90;;;;;;4950291;28;20059;-48
2022/07/28 03:46:31;;;;;;;4.90;4.32;;;10.30;99.90;;;;;;4944289;29;20059;-48
2022/07/28 03:48:57;;;;;;;7.95;4.60;;;10.30;99.90;;;;;;4934604;29;20055;-48
2022/07/28 03:51:24;;;;;;;7.60;4.45;;;10.30;99.90;;;;;;4924358;29;20063;-48
2022/07/28 03:53:51;;;;;;;5.70;4.40;;;10.30;99.90;;;;;;4923446;29;20052;-48
2022/07/28 03:56:18;;;;;;;6.75;4.50;;;10.30;99.90;;;;;;4924043;29;20066;-47
2022/07/28 03:58:44;;;;;;;6.55;4.20;;;10.30;99.90;;;;;;4924941;29;20047;-50
2022/07/28 04:01:09;;;;;;;6.50;4.60;;;10.20;99.90;;;;;;4943225;29;20509;-53
2022/07/28 04:03:36;;;;;;;9.30;4.82;;;10.20;99.90;;;;;;4983027;28;20065;-51
2022/07/28 04:06:02;;;;;;;8.60;4.55;;;10.20;99.90;;;;;;4980843;28;20089;-50
2022/07/28 04:08:28;;;;;;;7.53;4.85;;;10.20;99.90;;;;;;4969210;28;20087;-51
2022/07/28 04:10:54;;;;;;;5.80;5.20;;;10.10;99.90;;;;;;4994904;28;20046;-48
2022/07/28 04:13:21;;;;;;;4.50;3.67;;;10.10;99.90;;;;;;4989463;28;20529;-51
2022/07/28 04:15:47;;;;;;;4.38;3.10;;;10.10;99.90;;;;;;4970872;28;20061;-47
2022/07/28 04:18:13;;;;;;;3.72;2.92;;;10.10;99.90;;;;;;4988786;28;20094;-49
2022/07/28 04:20:39;;;;;;;5.82;3.65;;;10.10;99.90;;;;;;4992039;28;20140;-48
2022/07/28 04:23:05;;;;;;;4.63;3.55;;;10.10;99.90;;;;;;4989776;28;20050;-48
2022/07/28 04:25:31;;;;;;;6.05;2.92;;;10.10;99.90;;;;;;5007755;28;20111;-49
2022/07/28 04:27:57;;;;;;;6.10;3.75;;;10.20;99.90;;;;;;5006879;28;20046;-48
2022/07/28 04:30:24;;;;;;;7.38;4.07;;;10.10;99.90;;;;;;4983069;28;20042;-48
2022/07/28 04:32:51;;;;;;;5.65;3.80;;;10.20;99.90;;;;;;4986158;28;20076;-48
2022/07/28 04:35:18;;;;;;;5.20;3.97;;;10.20;99.90;;;;;;4987478;28;20049;-49
2022/07/28 04:37:46;;;;;;;5.30;4.13;;;10.20;99.90;;;;;;4989009;28;20057;-49
2022/07/28 04:40:12;;;;;;;5.95;3.75;;;10.30;99.90;;;;;;4988558;28;20149;-48
2022/07/28 04:42:39;;;;;;;5.15;3.95;;;10.30;99.90;;;;;;4984153;28;20502;-51
2022/07/28 04:45:07;;;;;;;5.28;4.50;;;10.40;99.90;;;;;;5001257;28;20582;-50
2022/07/28 04:47:34;;;;;;;4.40;4.00;;;10.50;99.90;;;;;;5007779;28;20050;-48
2022/07/28 04:50:00;;;;;;;6.85;4.78;;;10.70;99.90;;;;;;5008228;28;20357;-51
2022/07/28 04:52:26;;;;;;;4.07;3.45;;;11.40;99.90;;;;;;4974911;28;20057;-49
2022/07/28 04:54:53;;;;;;;3.80;3.38;;;12.50;99.90;;;;;;4988044;28;20058;-46
2022/07/28 04:57:19;;;;;;;8.52;2.65;;;14.00;99.90;;;;;;4969421;28;20058;-49
2022/07/28 04:59:45;;;;;;;4.53;3.22;;;15.40;99.90;;;;;;4969219;28;20138;-47
2022/07/28 05:02:12;;;;;;;24.48;16.00;;;16.40;99.90;;;;;;4997887;28;20608;-49
2022/07/28 05:04:38;;;;;;;38.97;26.25;;;16.80;99.90;;;;;;4972721;28;20062;-50
2022/07/28 05:07:05;;;;;;;41.03;28.95;;;17.50;99.90;;;;;;4987528;28;20061;-51
2022/07/28 05:09:32;;;;;;;40.28;29.45;;;18.20;99.90;;;;;;4987794;28;20583;-48
2022/07/28 05:11:57;;;;;;;41.22;28.42;;;18.00;99.90;;;;;;4988490;28;20104;-51
2022/07/28 05:14:24;;;;;;;29.15;22.67;;;17.40;99.90;;;;;;5000423;28;20448;-49
2022/07/28 05:16:50;;;;;;;30.02;21.25;;;16.70;99.90;;;;;;4988771;28;20107;-51
2022/07/28 05:19:16;;;;;;;26.20;18.60;;;16.10;99.90;;;;;;4991839;28;20492;-49
2022/07/28 05:21:42;;;;;;;15.52;10.60;;;15.60;99.90;;;;;;4987542;28;20050;-50
2022/07/28 05:24:09;;;;;;;14.10;9.68;;;15.30;99.90;;;;;;4973430;28;20068;-48
2022/07/28 05:26:35;;;;;;;12.13;8.15;;;15.00;99.90;;;;;;5002914;28;20136;-45
2022/07/28 05:29:02;;;;;;;12.20;7.53;;;14.70;99.90;;;;;;4988480;28;20061;-48
2022/07/28 05:31:28;;;;;;;11.65;7.20;;;14.40;99.90;;;;;;4980551;28;20050;-48
2022/07/28 05:33:54;;;;;;;10.65;8.93;;;14.20;99.90;;;;;;4988240;28;20045;-49
2022/07/28 05:36:20;;;;;;;8.85;7.85;;;14.00;99.90;;;;;;4988203;28;20410;-48
2022/07/28 05:38:45;;;;;;;10.60;7.63;;;13.90;99.90;;;;;;5004009;28;20096;-48
2022/07/28 05:41:12;;;;;;;13.43;9.32;;;13.80;99.90;;;;;;5006007;28;20119;-47
2022/07/28 05:43:38;;;;;;;10.65;8.43;;;13.80;99.90;;;;;;5007827;28;20062;-48
2022/07/28 05:46:04;;;;;;;13.23;10.07;;;13.80;99.90;;;;;;5000331;28;20054;-47
2022/07/28 05:48:31;;;;;;;10.65;8.57;;;13.90;99.90;;;;;;5005628;28;20104;-47
2022/07/28 05:50:58;;;;;;;13.73;10.18;;;14.10;99.90;;;;;;4988046;28;20542;-47
2022/07/28 05:53:24;;;;;;;14.40;10.40;;;14.30;99.90;;;;;;5005616;28;20409;-46
2022/07/28 05:55:50;;;;;;;16.10;11.73;;;15.10;99.90;;;;;;5003724;28;20052;-48
2022/07/28 05:58:20;;;;;;;23.77;16.02;;;16.10;99.90;;;;;;4967778;28;20058;-47
2022/07/28 06:00:46;;;;;;;19.50;14.63;;;17.80;99.90;;;;;;4985667;28;20548;-50
2022/07/28 06:03:12;;;;;;;26.88;16.13;;;18.50;99.90;;;;;;4986175;28;20058;-49
2022/07/28 06:05:38;;;;;;;24.83;17.90;;;18.40;99.90;;;;;;4986055;28;20065;-51
2022/07/28 06:08:04;;;;;;;25.52;18.15;;;18.20;99.90;;;;;;4979216;28;20039;-51
2022/07/28 06:10:57;;;;;;;25.30;17.95;;;18.30;99.90;;;;;;4966387;28;20057;-51
2022/07/28 06:13:17;;;;;;;23.27;17.60;;;18.30;99.90;;;;;;4986071;28;20121;-49
2022/07/28 06:15:46;;;;;;;27.48;18.23;;;18.50;99.90;;;;;;4981571;28;20050;-50
2022/07/28 06:18:13;;;;;;;19.25;12.52;;;18.80;99.90;;;;;;4985669;28;20097;-47
2022/07/28 06:20:39;;;;;;;17.52;11.90;;;19.10;99.90;;;;;;4969045;28;20576;-50
2022/07/28 06:23:05;;;;;;;15.10;12.02;;;19.80;99.90;;;;;;4958326;28;20058;-51
2022/07/28 06:25:31;;;;;;;13.63;9.40;;;20.20;99.90;;;;;;4987850;28;20054;-49
2022/07/28 06:28:01;;;;;;;9.80;5.80;;;20.40;99.90;;;;;;5002010;28;20081;-48
2022/07/28 06:30:29;;;;;;;10.40;5.60;;;20.50;99.90;;;;;;4994806;28;20042;-53
2022/07/28 06:32:57;;;;;;;8.13;4.57;;;20.30;99.90;;;;;;4997621;28;20045;-49
2022/07/28 06:35:24;;;;;;;7.60;5.18;;;20.20;99.90;;;;;;4991387;28;20497;-48
2022/07/28 06:37:51;;;;;;;7.15;4.90;;;20.00;99.90;;;;;;4985972;28;20046;-51
2022/07/28 06:40:19;;;;;;;7.28;4.57;;;20.10;99.90;;;;;;4985861;28;20060;-49
2022/07/28 06:47:02;;;;;;;7.55;4.10;;;20.20;99.90;;;;;;4981981;28;20429;-49
2022/07/28 06:49:28;;;;;;;9.52;4.40;;;20.20;99.90;;;;;;4984724;28;20519;-49
2022/07/28 06:51:54;;;;;;;10.02;4.88;;;20.30;99.90;;;;;;4986582;28;20050;-48
2022/07/28 06:54:29;;;;;;;8.23;4.53;;;20.40;99.90;;;;;;4968599;28;20140;-53
2022/07/28 06:56:55;;;;;;;7.88;4.05;;;20.90;99.90;;;;;;4967845;28;21619;-44
2022/07/28 06:59:21;;;;;;;6.88;4.25;;;21.30;99.90;;;;;;4980342;28;20054;-53
2022/07/28 07:01:47;;;;;;;8.77;4.05;;;21.50;99.90;;;;;;4964669;28;20551;-50
2022/07/28 07:04:14;;;;;;;7.35;4.63;;;21.40;99.90;;;;;;4984661;28;20061;-50
2022/07/28 07:06:40;;;;;;;7.43;3.53;;;21.50;99.90;;;;;;4986068;28;20617;-48
2022/07/28 07:09:06;;;;;;;6.07;3.33;;;21.40;99.90;;;;;;4985321;28;20038;-47
2022/07/28 07:11:32;;;;;;;5.15;2.53;;;21.40;99.90;;;;;;4976254;28;20081;-50
2022/07/28 07:13:57;;;;;;;6.53;2.55;;;21.10;99.90;;;;;;4966819;28;20539;-51
2022/07/28 07:16:23;;;;;;;6.22;2.45;;;20.90;99.80;;;;;;4965709;28;20057;-50
2022/07/28 07:18:51;;;;;;;5.78;2.22;;;20.70;99.90;;;;;;4982961;28;20500;-46
2022/07/28 07:21:18;;;;;;;5.35;2.53;;;20.80;99.90;;;;;;4983083;28;20046;-49
2022/07/28 07:23:44;;;;;;;4.78;2.40;;;20.80;99.80;;;;;;4962664;28;20058;-50
2022/07/28 07:26:10;;;;;;;5.75;2.20;;;20.90;99.80;;;;;;4965989;28;20469;-51
2022/07/28 07:28:36;;;;;;;6.53;2.20;;;21.00;99.60;;;;;;4983869;28;20113;-48
2022/07/28 07:31:02;;;;;;;4.55;1.83;;;21.20;98.80;;;;;;4963597;28;20149;-46
2022/07/28 07:33:29;;;;;;;4.55;2.42;;;21.40;98.70;;;;;;4981644;28;20050;-48
2022/07/28 07:35:55;;;;;;;6.82;2.20;;;21.60;98.50;;;;;;4968707;28;20122;-47
2022/07/28 07:38:21;;;;;;;4.28;2.05;;;21.90;98.20;;;;;;4990149;28;20054;-50
2022/07/28 07:40:49;;;;;;;5.45;1.92;;;22.10;97.80;;;;;;4990355;28;20061;-49
2022/07/28 07:43:17;;;;;;;3.92;2.00;;;22.10;97.40;;;;;;4968252;28;20507;-48
2022/07/28 07:45:43;;;;;;;7.05;2.40;;;22.30;97.30;;;;;;4981081;28;20065;-49
2022/07/28 07:48:10;;;;;;;5.80;1.85;;;22.70;96.80;;;;;;5027759;28;20416;-51
2022/07/28 07:50:37;;;;;;;6.03;2.05;;;22.90;96.40;;;;;;5031014;28;20058;-49
2022/07/28 07:53:03;;;;;;;4.97;2.10;;;23.10;96.00;;;;;;5030625;28;20412;-52
2022/07/28 07:55:29;;;;;;;5.32;1.45;;;23.20;95.90;;;;;;5031329;28;20446;-50
2022/07/28 07:57:56;;;;;;;4.85;1.67;;;22.80;95.20;;;;;;5019683;28;20069;-49
2022/07/28 08:00:23;;;;;;;4.43;1.67;;;22.80;95.50;;;;;;5011193;28;20050;-50
2022/07/28 08:02:50;;;;;;;4.30;1.52;;;22.60;95.40;;;;;;5010542;28;20509;-49
2022/07/28 08:05:16;;;;;;;3.33;1.27;;;22.60;95.40;;;;;;5005928;28;20073;-51
2022/07/28 08:07:42;;;;;;;5.75;1.95;;;22.10;94.30;;;;;;5010905;28;20504;-49
2022/07/28 08:10:09;;;;;;;4.65;1.50;;;21.90;94.70;;;;;;5024073;28;20049;-49
2022/07/28 08:12:35;;;;;;;6.18;1.48;;;21.90;95.20;;;;;;5012267;28;20559;-51
2022/07/28 08:15:02;;;;;;;5.00;1.60;;;21.80;95.40;;;;;;5000118;28;20498;-48
2022/07/28 08:17:29;;;;;;;5.20;1.40;;;21.60;95.90;;;;;;4982349;28;20065;-51
2022/07/28 08:19:55;;;;;;;3.72;1.63;;;21.70;95.70;;;;;;5019380;28;20050;-47
2022/07/28 08:22:22;;;;;;;3.10;1.27;;;21.80;95.50;;;;;;4992879;28;20156;-51
2022/07/28 08:24:48;;;;;;;4.93;1.15;;;21.80;95.20;;;;;;4993489;28;20423;-51
2022/07/28 08:27:14;;;;;;;2.47;1.15;;;21.80;95.20;;;;;;4992647;28;20285;-51
2022/07/28 08:29:41;;;;;;;4.30;2.28;;;21.50;95.20;;;;;;5011181;28;20104;-50
2022/07/28 08:32:07;;;;;;;4.03;1.40;;;21.40;95.80;;;;;;4976672;28;20112;-49
2022/07/28 08:34:33;;;;;;;5.05;1.27;;;21.30;95.70;;;;;;5012558;28;20049;-50
2022/07/28 08:37:05;;;;;;;1.98;1.10;;;21.00;95.60;;;;;;5014489;28;20058;-48
2022/07/28 08:39:32;;;;;;;3.65;1.38;;;20.70;95.90;;;;;;5011050;28;20408;-49
2022/07/28 08:42:42;;;;;;;4.53;1.38;;;20.30;96.50;;;;;;4992242;28;20541;-50
2022/07/28 08:45:09;;;;;;;5.93;2.00;;;19.90;96.90;;;;;;4946884;29;20157;-52
2022/07/28 08:47:36;;;;;;;3.08;1.23;;;19.50;97.90;;;;;;4943097;28;20494;-49
2022/07/28 08:50:03;;;;;;;3.55;1.48;;;19.30;98.50;;;;;;4927118;29;20059;-49
2022/07/28 08:52:33;;;;;;;4.57;1.00;;;19.00;98.20;;;;;;4910607;29;20071;-46
2022/07/28 08:55:03;;;;;;;3.17;1.20;;;18.90;98.40;;;;;;4928967;29;20097;-45
2022/07/28 08:57:40;;;;;;;4.60;1.38;;;18.80;98.70;;;;;;4934889;29;20055;-48
2022/07/28 09:00:08;;;;;;;4.72;1.30;;;18.80;98.90;;;;;;4938114;29;20098;-48
2022/07/28 09:02:37;;;;;;;3.58;1.35;;;18.80;98.80;;;;;;4923277;29;20044;-49
2022/07/28 09:05:04;;;;;;;5.95;1.48;;;18.80;99.00;;;;;;4937037;29;20054;-48
2022/07/28 09:07:31;;;;;;;4.80;1.30;;;18.80;98.90;;;;;;4945803;29;20058;-51
2022/07/28 09:09:57;;;;;;;4.40;1.50;;;18.90;98.90;;;;;;4921236;29;20586;-53
2022/07/28 09:12:23;;;;;;;4.10;1.52;;;18.80;99.70;;;;;;4957762;28;20051;-51
2022/07/28 09:14:49;;;;;;;4.88;1.40;;;18.90;99.20;;;;;;4945788;29;20082;-48
2022/07/28 09:17:16;;;;;;;4.03;1.73;;;18.90;99.20;;;;;;4928816;29;20639;-48
2022/07/28 09:19:42;;;;;;;1.83;1.10;;;18.80;98.60;;;;;;4989854;28;20069;-48
2022/07/28 09:22:08;;;;;;;3.70;1.30;;;18.70;98.30;;;;;;5007289;28;20596;-48
2022/07/28 09:24:38;;;;;;;6.60;2.00;;;18.80;98.20;;;;;;5007035;28;20127;-47
2022/07/28 09:27:06;;;;;;;2.92;1.35;;;18.80;99.10;;;;;;5006343;28;20073;-47
2022/07/28 09:29:34;;;;;;;3.78;1.15;;;18.90;99.10;;;;;;4988412;28;20465;-48
2022/07/28 09:32:02;;;;;;;3.17;1.10;;;18.90;99.10;;;;;;5002902;28;20101;-48
2022/07/28 09:34:42;;;;;;;2.63;1.35;;;19.00;99.00;;;;;;5006952;28;20115;-49
2022/07/28 09:37:26;;;;;;;5.32;1.67;;;18.90;98.90;;;;;;5006565;28;20057;-48
2022/07/28 09:39:56;;;;;;;3.83;1.30;;;18.80;99.00;;;;;;5005899;28;20602;-50
2022/07/28 09:42:23;;;;;;;5.18;1.30;;;18.60;98.90;;;;;;4983336;28;20045;-48
2022/07/28 09:45:07;;;;;;;7.57;1.60;;;18.70;99.30;;;;;;5003151;28;20057;-50
2022/07/28 09:47:34;;;;;;;4.28;1.17;;;18.70;99.00;;;;;;4981554;28;20081;-47
2022/07/28 09:50:01;;;;;;;7.55;1.70;;;18.90;99.10;;;;;;4966694;28;20137;-47
2022/07/28 09:52:35;;;;;;;3.30;1.50;;;19.00;98.60;;;;;;4983199;28;20113;-49
2022/07/28 09:55:07;;;;;;;3.35;1.48;;;19.10;98.50;;;;;;4985163;28;20046;-48
2022/07/28 09:57:35;;;;;;;2.28;1.25;;;19.20;97.50;;;;;;4983378;28;20692;-50
2022/07/28 10:00:05;;;;;;;2.38;1.20;;;19.30;97.70;;;;;;4966287;28;20414;-49
2022/07/28 10:02:35;;;;;;;7.13;1.60;;;19.30;98.00;;;;;;4969128;28;20053;-48
2022/07/28 10:05:07;;;;;;;4.55;1.40;;;19.20;97.60;;;;;;4986624;28;20816;-47
2022/07/28 10:07:48;;;;;;;4.82;1.50;;;19.30;97.60;;;;;;4982711;28;20065;-50
2022/07/28 10:10:19;;;;;;;2.72;1.38;;;19.20;97.60;;;;;;4964337;28;20544;-50
2022/07/28 10:12:45;;;;;;;4.75;1.45;;;19.20;97.60;;;;;;4967201;28;20497;-51
2022/07/28 10:18:04;;;;;;;3.80;1.33;;;19.50;98.30;;;;;;4986136;28;20062;-49
2022/07/28 10:20:32;;;;;;;3.15;1.70;;;19.70;98.00;;;;;;4954145;28;20117;-48
2022/07/28 10:23:02;;;;;;;3.28;1.60;;;19.90;97.90;;;;;;4983603;28;20778;-49
2022/07/28 10:25:33;;;;;;;4.88;1.40;;;20.00;97.80;;;;;;4981314;28;20497;-49
2022/07/28 10:28:01;;;;;;;4.35;1.60;;;20.20;98.00;;;;;;4984146;28;20046;-51
2022/07/28 10:30:37;;;;;;;5.10;1.75;;;20.60;97.70;;;;;;4980192;28;20081;-48
2022/07/28 10:33:13;;;;;;;4.65;1.42;;;20.90;97.20;;;;;;4965300;28;20061;-51
2022/07/28 10:35:39;;;;;;;5.00;1.45;;;21.00;96.40;;;;;;4967030;28;20158;-47
2022/07/28 10:38:17;;;;;;;2.83;1.27;;;21.10;96.60;;;;;;4984084;28;20862;-48
2022/07/28 10:40:49;;;;;;;4.25;1.40;;;21.40;96.70;;;;;;4978798;28;20796;-48
2022/07/28 10:43:15;;;;;;;2.42;1.55;;;21.40;96.10;;;;;;4964961;28;20050;-51
2022/07/28 10:45:43;;;;;;;3.08;1.20;;;21.20;94.80;;;;;;4977986;28;20053;-49
2022/07/28 10:48:09;;;;;;;2.42;1.23;;;21.30;95.20;;;;;;5005586;28;20054;-51
2022/07/28 10:50:36;;;;;;;2.05;1.17;;;21.40;94.90;;;;;;5005419;28;20103;-47
2022/07/28 10:53:02;;;;;;;2.35;1.48;;;21.20;94.60;;;;;;5005017;28;20390;-51
2022/07/28 10:55:54;;;;;;;2.97;1.35;;;21.10;95.00;;;;;;4986362;28;20576;-49
2022/07/28 10:58:41;;;;;;;2.92;1.40;;;21.00;94.50;;;;;;5004995;28;20046;-51
2022/07/28 11:01:39;;;;;;;2.63;1.17;;;20.80;94.20;;;;;;4885717;29;20064;-51
2022/07/28 11:04:06;;;;;;;2.25;1.20;;;20.50;94.30;;;;;;4889462;29;20056;-50
2022/07/28 11:06:38;;;;;;;4.82;1.30;;;20.50;95.30;;;;;;4919051;29;20063;-51
2022/07/28 11:09:22;;;;;;;2.70;1.08;;;20.60;95.80;;;;;;4917021;29;20889;-49
2022/07/28 11:11:58;;;;;;;6.05;1.35;;;20.80;95.50;;;;;;4905699;29;20063;-50
2022/07/28 11:14:24;;;;;;;4.10;1.58;;;20.80;95.90;;;;;;4905702;29;20087;-48
2022/07/28 11:17:13;;;;;;;2.08;1.30;;;21.00;95.10;;;;;;4900868;29;20119;-49
2022/07/28 11:19:45;;;;;;;2.00;0.98;;;20.90;94.30;;;;;;4908380;29;20087;-49
2022/07/28 11:22:26;;;;;;;4.50;1.77;;;20.70;94.20;;;;;;4924228;29;20051;-49
2022/07/28 11:25:03;;;;;;;4.90;1.42;;;20.70;94.70;;;;;;4909503;29;20104;-51
2022/07/28 11:27:48;;;;;;;2.60;1.20;;;20.70;94.50;;;;;;4889362;29;20092;-49
2022/07/28 11:30:27;;;;;;;3.40;1.65;;;20.70;94.10;;;;;;4918103;29;20062;-47
2022/07/28 11:32:53;;;;;;;4.82;1.20;;;20.60;94.00;;;;;;4889263;29;20104;-50
2022/07/28 11:35:20;;;;;;;3.17;1.20;;;20.50;94.40;;;;;;4898777;29;20163;-49
2022/07/28 11:38:02;;;;;;;4.15;1.60;;;20.50;94.40;;;;;;4934629;28;20061;-48
2022/07/28 11:40:42;;;;;;;4.95;1.17;;;20.50;94.70;;;;;;5023724;28;20488;-46
2022/07/28 11:43:20;;;;;;;3.25;1.35;;;20.70;94.50;;;;;;5023076;28;20060;-46
2022/07/28 11:45:46;;;;;;;4.00;1.85;;;20.60;93.00;;;;;;5022635;28;20053;-47
2022/07/28 11:48:17;;;;;;;2.83;1.75;;;20.70;93.90;;;;;;5022253;28;20569;-50
2022/07/28 11:51:02;;;;;;;1.67;1.10;;;20.80;94.10;;;;;;5009431;28;20053;-48
2022/07/28 11:53:53;;;;;;;3.80;1.60;;;21.00;94.40;;;;;;5022963;28;20139;-48
2022/07/28 11:56:36;;;;;;;5.72;1.70;;;20.90;94.30;;;;;;5004745;28;20124;-49
2022/07/28 11:59:03;;;;;;;;;;;21.10;94.30;;;;;;4983073;28;20116;-49
2022/07/28 12:01:32;;;;;;;3.45;1.25;;;20.90;93.80;;;;;;4985382;28;20472;-50
2022/07/28 12:03:59;;;;;;;2.17;1.25;;;21.10;93.70;;;;;;5001164;28;20565;-49
2022/07/28 12:06:36;;;;;;;2.33;1.00;;;21.20;93.70;;;;;;4999737;28;20041;-46
2022/07/28 12:09:09;;;;;;;3.28;1.50;;;21.50;93.40;;;;;;5005498;28;20072;-49
2022/07/28 12:11:52;;;;;;;2.95;1.42;;;21.60;93.20;;;;;;5009042;28;20099;-50
2022/07/28 12:14:21;;;;;;;2.28;1.50;;;21.30;94.80;;;;;;5022840;28;20056;-50
2022/07/28 12:16:49;;;;;;;3.88;1.67;;;21.10;95.10;;;;;;5023619;28;20050;-49
2022/07/28 12:19:18;;;;;;;3.72;1.63;;;20.90;95.00;;;;;;5021875;28;20062;-49
2022/07/28 12:21:52;;;;;;;2.75;1.30;;;20.80;96.00;;;;;;4984942;28;20057;-50
2022/07/28 12:24:26;;;;;;;4.10;1.40;;;20.70;95.30;;;;;;4985126;28;20056;-47
2022/07/28 12:26:54;;;;;;;2.25;1.27;;;20.70;96.10;;;;;;5002658;28;20192;-49
2022/07/28 12:29:20;;;;;;;3.78;1.25;;;20.60;95.70;;;;;;4985182;28;20683;-53
2022/07/28 12:32:01;;;;;;;4.35;1.75;;;20.60;96.20;;;;;;4984233;28;20056;-47
2022/07/28 12:34:28;;;;;;;2.70;1.50;;;20.70;96.90;;;;;;4970527;28;20501;-50
2022/07/28 12:36:56;;;;;;;4.43;1.48;;;20.60;95.70;;;;;;4985696;28;20064;-49
2022/07/28 12:39:24;;;;;;;2.05;1.40;;;20.60;96.20;;;;;;4987663;28;20089;-50
2022/07/28 12:42:07;;;;;;;2.67;1.23;;;20.80;96.40;;;;;;5001846;28;20053;-50
2022/07/28 12:44:36;;;;;;;3.00;1.30;;;20.70;96.00;;;;;;5000449;28;20042;-50
2022/07/28 12:47:06;;;;;;;3.08;1.35;;;20.80;96.80;;;;;;5002635;28;20145;-48
2022/07/28 12:49:33;;;;;;;4.00;1.42;;;21.10;95.90;;;;;;4961371;28;20065;-50
2022/07/28 12:52:13;;;;;;;4.63;1.42;;;21.20;95.30;;;;;;4998919;28;20049;-51
2022/07/28 12:54:39;;;;;;;2.10;1.27;;;21.30;95.40;;;;;;4985437;28;20053;-46
2022/07/28 12:57:06;;;;;;;5.60;1.48;;;21.30;95.70;;;;;;4996811;28;20148;-49
2022/07/28 12:59:37;;;;;;;5.22;2.50;;;21.50;96.40;;;;;;5000233;28;20104;-50
2022/07/28 13:02:06;;;;;;;7.63;2.17;;;21.80;95.50;;;;;;5003253;28;20520;-47
2022/07/28 13:04:42;;;;;;;2.72;1.63;;;21.70;95.10;;;;;;5002908;28;20061;-49
2022/07/28 13:07:12;;;;;;;4.10;1.80;;;21.60;95.00;;;;;;5002638;28;20049;-47